sensor_id;sensor_type;location;lat;lon;timestamp;temperature;humidity
16174;DHT22;14031;50.158;8.626;2023-11-19T00:02:25;9.10;99.90
16174;DHT22;14031;50.158;8.626;2023-11-19T00:04:52;9.00;99.90
16174;DHT22;14031;50.158;8.626;2023-11-19T00:07:19;9.10;99.90
16174;DHT22;14031;50.158;8.626;2023-11-19T00:09:47;9.10;99.90
16174;DHT22;14031;50.158;8.626;2023-11-19T00:12:14;9.10;99.90
16174;DHT22;14031;50.158;8.626;2023-11-19T00:14:41;9.10;99.90
16174;DHT22;14031;50.158;8.626;2023-11-19T00:17:08;9.10;99.90
16174;DHT22;14031;50.158;8.626;2023-11-19T00:19:35;9.10;99.90
16174;DHT22;14031;50.158;8.626;2023-11-19T00:22:02;9.10;99.90
16174;DHT22;14031;50.158;8.626;2023-11-19T00:24:29;9.10;99.90
16174;DHT22;14031;50.158;8.626;2023-11-19T00:26:57;9.10;99.90
16174;DHT22;14031;50.158;8.626;2023-11-19T00:29:24;9.10;99.90
16174;DHT22;14031;50.158;8.626;2023-11-19T00:31:51;9.10;99.90
16174;DHT22;14031;50.158;8.626;2023-11-19T00:34:18;9.10;99.90
16174;DHT22;14031;50.158;8.626;2023-11-19T00:36:47;9.10;99.90
16174;DHT22;14031;50.158;8.626;2023-11-19T00:39:14;9.20;99.90
16174;DHT22;14031;50.158;8.626;2023-11-19T00:41:41;9.10;99.90
16174;DHT22;14031;50.158;8.626;2023-11-19T00:44:09;9.10;99.90
16174;DHT22;14031;50.158;8.626;2023-11-19T00:46:36;9.20;99.90
16174;DHT22;14031;50.158;8.626;2023-11-19T00:49:04;9.20;99.90
16174;DHT22;14031;50.158;8.626;2023-11-19T00:51:30;9.00;99.90
16174;DHT22;14031;50.158;8.626;2023-11-19T00:53:58;9.20;99.90
16174;DHT22;14031;50.158;8.626;2023-11-19T00:56:24;9.20;99.90
16174;DHT22;14031;50.158;8.626;2023-11-19T00:58:51;9.20;99.90
16174;DHT22;14031;50.158;8.626;2023-11-19T01:01:19;9.30;99.90
16174;DHT22;14031;50.158;8.626;2023-11-19T01:03:47;9.20;99.90
16174;DHT22;14031;50.158;8.626;2023-11-19T01:06:13;9.30;99.90
16174;DHT22;14031;50.158;8.626;2023-11-19T01:08:42;9.20;99.90
16174;DHT22;14031;50.158;8.626;2023-11-19T01:11:19;9.40;99.90
16174;DHT22;14031;50.158;8.626;2023-11-19T01:13:47;9.30;99.90
16174;DHT22;14031;50.158;8.626;2023-11-19T01:16:13;9.30;99.90
16174;DHT22;14031;50.158;8.626;2023-11-19T01:18:41;9.30;99.90
16174;DHT22;14031;50.158;8.626;2023-11-19T01:21:08;9.30;99.90
16174;DHT22;14031;50.158;8.626;2023-11-19T01:23:35;9.30;99.90
16174;DHT22;14031;50.158;8.626;2023-11-19T01:26:02;9.30;99.90
16174;DHT22;14031;50.158;8.626;2023-11-19T01:28:30;9.30;99.90
16174;DHT22;14031;50.158;8.626;2023-11-19T01:30:57;9.30;99.90
16174;DHT22;14031;50.158;8.626;2023-11-19T01:33:24;9.40;99.90
16174;DHT22;14031;50.158;8.626;2023-11-19T01:35:52;9.30;99.90
16174;DHT22;14031;50.158;8.626;2023-11-19T01:38:19;9.30;99.90
16174;DHT22;14031;50.158;8.626;2023-11-19T01:40:45;9.40;99.90
16174;DHT22;14031;50.158;8.626;2023-11-19T01:43:12;9.40;99.90
16174;DHT22;14031;50.158;8.626;2023-11-19T01:45:57;9.40;99.90
16174;DHT22;14031;50.158;8.626;2023-11-19T01:48:23;9.40;99.90
16174;DHT22;14031;50.158;8.626;2023-11-19T01:50:52;9.50;99.90
16174;DHT22;14031;50.158;8.626;2023-11-19T01:53:19;9.40;99.90
16174;DHT22;14031;50.158;8.626;2023-11-19T01:55:46;9.40;99.90
16174;DHT22;14031;50.158;8.626;2023-11-19T01:58:14;9.40;99.90
16174;DHT22;14031;50.158;8.626;2023-11-19T02:00:43;9.40;99.90
16174;DHT22;14031;50.158;8.626;2023-11-19T02:03:11;9.40;99.90
16174;DHT22;14031;50.158;8.626;2023-11-19T02:05:39;9.50;99.90
16174;DHT22;14031;50.158;8.626;2023-11-19T02:08:07;9.50;99.90
16174;DHT22;14031;50.158;8.626;2023-11-19T02:10:34;9.50;99.90
16174;DHT22;14031;50.158;8.626;2023-11-19T02:13:01;9.50;99.90
16174;DHT22;14031;50.158;8.626;2023-11-19T02:15:30;9.50;99.90
16174;DHT22;14031;50.158;8.626;2023-11-19T02:17:57;9.50;99.90
16174;DHT22;14031;50.158;8.626;2023-11-19T02:20:43;9.50;99.90
16174;DHT22;14031;50.158;8.626;2023-11-19T02:23:12;9.50;99.90
16174;DHT22;14031;50.158;8.626;2023-11-19T02:25:40;9.60;99.90
16174;DHT22;14031;50.158;8.626;2023-11-19T02:28:09;9.60;99.90
16174;DHT22;14031;50.158;8.626;2023-11-19T02:30:37;9.60;99.90
16174;DHT22;14031;50.158;8.626;2023-11-19T02:33:04;9.60;99.90
16174;DHT22;14031;50.158;8.626;2023-11-19T02:35:32;9.60;99.90
16174;DHT22;14031;50.158;8.626;2023-11-19T02:37:59;9.70;99.90
16174;DHT22;14031;50.158;8.626;2023-11-19T02:40:26;9.60;99.90
16174;DHT22;14031;50.158;8.626;2023-11-19T02:42:53;9.60;99.90
16174;DHT22;14031;50.158;8.626;2023-11-19T02:45:23;9.60;99.90
16174;DHT22;14031;50.158;8.626;2023-11-19T02:47:50;9.60;99.90
16174;DHT22;14031;50.158;8.626;2023-11-19T02:50:18;9.60;99.90
16174;DHT22;14031;50.158;8.626;2023-11-19T02:52:51;9.60;99.90
16174;DHT22;14031;50.158;8.626;2023-11-19T02:55:18;9.70;99.90
16174;DHT22;14031;50.158;8.626;2023-11-19T02:57:45;9.70;99.90
16174;DHT22;14031;50.158;8.626;2023-11-19T03:00:14;9.70;99.90
16174;DHT22;14031;50.158;8.626;2023-11-19T03:02:43;9.70;99.90
16174;DHT22;14031;50.158;8.626;2023-11-19T03:05:12;9.70;99.90
16174;DHT22;14031;50.158;8.626;2023-11-19T03:07:40;9.70;99.90
16174;DHT22;14031;50.158;8.626;2023-11-19T03:10:09;9.80;99.90
16174;DHT22;14031;50.158;8.626;2023-11-19T03:12:39;9.70;99.90
16174;DHT22;14031;50.158;8.626;2023-11-19T03:15:07;9.70;99.90
16174;DHT22;14031;50.158;8.626;2023-11-19T03:17:35;9.70;99.90
16174;DHT22;14031;50.158;8.626;2023-11-19T03:20:05;9.70;99.90
16174;DHT22;14031;50.158;8.626;2023-11-19T03:22:33;9.70;99.90
16174;DHT22;14031;50.158;8.626;2023-11-19T03:25:00;9.70;99.90
16174;DHT22;14031;50.158;8.626;2023-11-19T03:27:27;9.70;99.90
16174;DHT22;14031;50.158;8.626;2023-11-19T03:29:54;9.70;99.90
16174;DHT22;14031;50.158;8.626;2023-11-19T03:32:20;9.80;99.90
16174;DHT22;14031;50.158;8.626;2023-11-19T03:34:47;9.90;99.90
16174;DHT22;14031;50.158;8.626;2023-11-19T03:37:15;9.70;99.90
16174;DHT22;14031;50.158;8.626;2023-11-19T03:39:43;9.80;99.90
16174;DHT22;14031;50.158;8.626;2023-11-19T03:42:09;9.80;99.90
16174;DHT22;14031;50.158;8.626;2023-11-19T03:44:38;9.80;99.90
16174;DHT22;14031;50.158;8.626;2023-11-19T03:47:05;9.80;99.90
16174;DHT22;14031;50.158;8.626;2023-11-19T03:49:32;9.80;99.90
16174;DHT22;14031;50.158;8.626;2023-11-19T03:51:59;9.80;99.90
16174;DHT22;14031;50.158;8.626;2023-11-19T03:54:27;9.80;99.90
16174;DHT22;14031;50.158;8.626;2023-11-19T03:56:54;10.10;99.90
16174;DHT22;14031;50.158;8.626;2023-11-19T03:59:21;9.90;99.90
16174;DHT22;14031;50.158;8.626;2023-11-19T04:01:48;9.90;99.90
16174;DHT22;14031;50.158;8.626;2023-11-19T04:04:14;9.90;99.90
16174;DHT22;14031;50.158;8.626;2023-11-19T04:06:41;10.00;99.90
16174;DHT22;14031;50.158;8.626;2023-11-19T04:09:08;10.00;99.90
16174;DHT22;14031;50.158;8.626;2023-11-19T04:11:37;10.00;99.90
16174;DHT22;14031;50.158;8.626;2023-11-19T04:14:05;10.00;99.90
16174;DHT22;14031;50.158;8.626;2023-11-19T04:16:32;10.00;99.90
16174;DHT22;14031;50.158;8.626;2023-11-19T04:18:58;10.00;99.90
16174;DHT22;14031;50.158;8.626;2023-11-19T04:21:25;10.00;99.90
16174;DHT22;14031;50.158;8.626;2023-11-19T04:23:52;10.00;99.90
16174;DHT22;14031;50.158;8.626;2023-11-19T04:26:19;10.00;99.90
16174;DHT22;14031;50.158;8.626;2023-11-19T04:28:47;10.00;99.90
16174;DHT22;14031;50.158;8.626;2023-11-19T04:31:14;10.00;99.90
16174;DHT22;14031;50.158;8.626;2023-11-19T04:33:41;10.00;99.90
16174;DHT22;14031;50.158;8.626;2023-11-19T04:36:09;10.00;99.90
16174;DHT22;14031;50.158;8.626;2023-11-19T04:38:37;10.00;99.90
16174;DHT22;14031;50.158;8.626;2023-11-19T04:41:04;10.10;99.90
16174;DHT22;14031;50.158;8.626;2023-11-19T04:43:32;10.10;99.90
16174;DHT22;14031;50.158;8.626;2023-11-19T04:46:00;10.30;99.90
16174;DHT22;14031;50.158;8.626;2023-11-19T04:48:29;10.10;99.90
16174;DHT22;14031;50.158;8.626;2023-11-19T04:50:56;10.10;99.90
16174;DHT22;14031;50.158;8.626;2023-11-19T04:53:23;10.10;99.90
16174;DHT22;14031;50.158;8.626;2023-11-19T04:55:50;10.10;99.90
16174;DHT22;14031;50.158;8.626;2023-11-19T04:58:16;10.20;99.90
16174;DHT22;14031;50.158;8.626;2023-11-19T05:00:44;10.20;99.90
16174;DHT22;14031;50.158;8.626;2023-11-19T05:03:12;10.20;99.90
16174;DHT22;14031;50.158;8.626;2023-11-19T05:05:39;10.10;99.90
16174;DHT22;14031;50.158;8.626;2023-11-19T05:08:06;10.20;99.90
16174;DHT22;14031;50.158;8.626;2023-11-19T05:10:32;10.10;99.90
16174;DHT22;14031;50.158;8.626;2023-11-19T05:12:59;10.40;99.90
16174;DHT22;14031;50.158;8.626;2023-11-19T05:15:26;10.30;99.90
16174;DHT22;14031;50.158;8.626;2023-11-19T05:17:53;10.30;99.90
16174;DHT22;14031;50.158;8.626;2023-11-19T05:20:21;10.30;99.90
16174;DHT22;14031;50.158;8.626;2023-11-19T05:22:47;10.20;99.90
16174;DHT22;14031;50.158;8.626;2023-11-19T05:25:17;10.30;99.90
16174;DHT22;14031;50.158;8.626;2023-11-19T05:27:45;10.30;99.90
16174;DHT22;14031;50.158;8.626;2023-11-19T05:30:12;10.30;99.90
16174;DHT22;14031;50.158;8.626;2023-11-19T05:32:39;10.30;99.90
16174;DHT22;14031;50.158;8.626;2023-11-19T05:35:07;10.30;99.90
16174;DHT22;14031;50.158;8.626;2023-11-19T05:37:35;10.30;99.90
16174;DHT22;14031;50.158;8.626;2023-11-19T05:40:02;10.40;99.90
16174;DHT22;14031;50.158;8.626;2023-11-19T05:42:32;10.30;99.90
16174;DHT22;14031;50.158;8.626;2023-11-19T05:44:59;10.30;99.90
16174;DHT22;14031;50.158;8.626;2023-11-19T05:47:26;10.30;99.90
16174;DHT22;14031;50.158;8.626;2023-11-19T05:49:53;10.30;99.90
16174;DHT22;14031;50.158;8.626;2023-11-19T05:52:20;10.40;99.90
16174;DHT22;14031;50.158;8.626;2023-11-19T05:54:49;10.40;99.90
16174;DHT22;14031;50.158;8.626;2023-11-19T05:57:17;10.60;99.90
16174;DHT22;14031;50.158;8.626;2023-11-19T05:59:45;10.40;99.90
16174;DHT22;14031;50.158;8.626;2023-11-19T06:02:12;10.50;99.90
16174;DHT22;14031;50.158;8.626;2023-11-19T06:04:39;10.40;99.90
16174;DHT22;14031;50.158;8.626;2023-11-19T06:07:07;10.50;99.90
16174;DHT22;14031;50.158;8.626;2023-11-19T06:09:32;10.50;99.90
16174;DHT22;14031;50.158;8.626;2023-11-19T06:12:01;10.50;99.90
16174;DHT22;14031;50.158;8.626;2023-11-19T06:14:29;10.50;99.90
16174;DHT22;14031;50.158;8.626;2023-11-19T06:16:56;10.50;99.90
16174;DHT22;14031;50.158;8.626;2023-11-19T06:19:22;10.50;99.90
16174;DHT22;14031;50.158;8.626;2023-11-19T06:21:50;10.50;99.90
16174;DHT22;14031;50.158;8.626;2023-11-19T06:24:17;10.50;99.90
16174;DHT22;14031;50.158;8.626;2023-11-19T06:26:43;10.50;99.90
16174;DHT22;14031;50.158;8.626;2023-11-19T06:29:11;10.50;99.90
16174;DHT22;14031;50.158;8.626;2023-11-19T06:31:44;10.60;99.90
16174;DHT22;14031;50.158;8.626;2023-11-19T06:34:14;10.50;99.90
16174;DHT22;14031;50.158;8.626;2023-11-19T06:36:41;10.60;99.90
16174;DHT22;14031;50.158;8.626;2023-11-19T06:39:09;10.60;99.90
16174;DHT22;14031;50.158;8.626;2023-11-19T06:41:36;10.60;99.90
16174;DHT22;14031;50.158;8.626;2023-11-19T06:44:04;10.60;99.90
16174;DHT22;14031;50.158;8.626;2023-11-19T06:46:32;10.60;99.90
16174;DHT22;14031;50.158;8.626;2023-11-19T06:48:59;10.60;99.90
16174;DHT22;14031;50.158;8.626;2023-11-19T06:51:25;10.70;99.90
16174;DHT22;14031;50.158;8.626;2023-11-19T06:53:53;10.60;99.90
16174;DHT22;14031;50.158;8.626;2023-11-19T06:56:20;10.60;99.90
16174;DHT22;14031;50.158;8.626;2023-11-19T06:58:48;10.60;99.90
16174;DHT22;14031;50.158;8.626;2023-11-19T07:01:14;10.70;99.90
16174;DHT22;14031;50.158;8.626;2023-11-19T07:03:43;10.70;99.90
16174;DHT22;14031;50.158;8.626;2023-11-19T07:06:10;10.60;99.90
16174;DHT22;14031;50.158;8.626;2023-11-19T07:08:38;10.70;99.90
16174;DHT22;14031;50.158;8.626;2023-11-19T07:11:05;10.70;99.90
16174;DHT22;14031;50.158;8.626;2023-11-19T07:13:32;10.70;99.90
16174;DHT22;14031;50.158;8.626;2023-11-19T07:15:58;10.70;99.90
16174;DHT22;14031;50.158;8.626;2023-11-19T07:18:25;10.70;99.90
16174;DHT22;14031;50.158;8.626;2023-11-19T07:20:53;10.70;99.90
16174;DHT22;14031;50.158;8.626;2023-11-19T07:23:20;10.90;99.90
16174;DHT22;14031;50.158;8.626;2023-11-19T07:25:47;10.80;99.90
16174;DHT22;14031;50.158;8.626;2023-11-19T07:28:16;10.80;99.90
16174;DHT22;14031;50.158;8.626;2023-11-19T07:30:43;10.80;99.90
16174;DHT22;14031;50.158;8.626;2023-11-19T07:33:09;10.80;99.90
16174;DHT22;14031;50.158;8.626;2023-11-19T07:35:37;10.80;99.90
16174;DHT22;14031;50.158;8.626;2023-11-19T07:38:05;10.80;99.90
16174;DHT22;14031;50.158;8.626;2023-11-19T07:40:32;10.80;99.90
16174;DHT22;14031;50.158;8.626;2023-11-19T07:42:58;10.80;99.90
16174;DHT22;14031;50.158;8.626;2023-11-19T07:45:25;10.90;99.90
16174;DHT22;14031;50.158;8.626;2023-11-19T07:47:52;10.90;99.90
16174;DHT22;14031;50.158;8.626;2023-11-19T07:50:18;10.90;99.90
16174;DHT22;14031;50.158;8.626;2023-11-19T07:52:45;10.90;99.90
16174;DHT22;14031;50.158;8.626;2023-11-19T07:55:13;10.90;99.90
16174;DHT22;14031;50.158;8.626;2023-11-19T07:57:40;10.90;99.90
16174;DHT22;14031;50.158;8.626;2023-11-19T08:00:08;11.00;99.90
16174;DHT22;14031;50.158;8.626;2023-11-19T08:02:37;11.00;99.90
16174;DHT22;14031;50.158;8.626;2023-11-19T08:05:05;11.00;99.90
16174;DHT22;14031;50.158;8.626;2023-11-19T08:07:32;11.00;99.90
16174;DHT22;14031;50.158;8.626;2023-11-19T08:09:59;11.10;99.90
16174;DHT22;14031;50.158;8.626;2023-11-19T08:12:27;11.10;99.90
16174;DHT22;14031;50.158;8.626;2023-11-19T08:14:54;11.20;99.90
16174;DHT22;14031;50.158;8.626;2023-11-19T08:17:21;11.20;99.90
16174;DHT22;14031;50.158;8.626;2023-11-19T08:19:48;11.20;99.90
16174;DHT22;14031;50.158;8.626;2023-11-19T08:22:15;11.30;99.90
16174;DHT22;14031;50.158;8.626;2023-11-19T08:24:43;11.30;99.90
16174;DHT22;14031;50.158;8.626;2023-11-19T08:27:09;11.30;99.90
16174;DHT22;14031;50.158;8.626;2023-11-19T08:29:37;11.40;99.90
16174;DHT22;14031;50.158;8.626;2023-11-19T08:32:05;11.30;99.90
16174;DHT22;14031;50.158;8.626;2023-11-19T08:34:32;11.40;99.90
16174;DHT22;14031;50.158;8.626;2023-11-19T08:37:00;11.40;99.90
16174;DHT22;14031;50.158;8.626;2023-11-19T08:39:26;11.40;99.90
16174;DHT22;14031;50.158;8.626;2023-11-19T08:41:53;11.40;99.90
16174;DHT22;14031;50.158;8.626;2023-11-19T08:44:21;11.40;99.90
16174;DHT22;14031;50.158;8.626;2023-11-19T08:46:49;11.40;99.90
16174;DHT22;14031;50.158;8.626;2023-11-19T08:49:16;11.50;99.90
16174;DHT22;14031;50.158;8.626;2023-11-19T08:51:43;11.50;99.90
16174;DHT22;14031;50.158;8.626;2023-11-19T08:54:10;11.60;99.90
16174;DHT22;14031;50.158;8.626;2023-11-19T08:56:38;11.50;99.90
16174;DHT22;14031;50.158;8.626;2023-11-19T08:59:05;11.50;99.90
16174;DHT22;14031;50.158;8.626;2023-11-19T09:01:32;11.50;99.90
16174;DHT22;14031;50.158;8.626;2023-11-19T09:04:00;11.50;99.90
16174;DHT22;14031;50.158;8.626;2023-11-19T09:06:27;11.50;99.90
16174;DHT22;14031;50.158;8.626;2023-11-19T09:08:53;11.50;99.90
16174;DHT22;14031;50.158;8.626;2023-11-19T09:11:23;11.50;99.90
16174;DHT22;14031;50.158;8.626;2023-11-19T09:13:50;11.60;99.90
16174;DHT22;14031;50.158;8.626;2023-11-19T09:16:17;11.60;99.90
16174;DHT22;14031;50.158;8.626;2023-11-19T09:18:44;11.60;99.90
16174;DHT22;14031;50.158;8.626;2023-11-19T09:21:12;11.70;99.90
16174;DHT22;14031;50.158;8.626;2023-11-19T09:23:39;11.80;99.90
16174;DHT22;14031;50.158;8.626;2023-11-19T09:26:06;11.80;99.90
16174;DHT22;14031;50.158;8.626;2023-11-19T09:28:35;11.90;99.90
16174;DHT22;14031;50.158;8.626;2023-11-19T09:31:02;11.90;99.90
16174;DHT22;14031;50.158;8.626;2023-11-19T09:33:30;12.00;99.90
16174;DHT22;14031;50.158;8.626;2023-11-19T09:35:57;12.10;99.90
16174;DHT22;14031;50.158;8.626;2023-11-19T09:38:25;12.10;99.90
16174;DHT22;14031;50.158;8.626;2023-11-19T09:40:52;12.20;99.90
16174;DHT22;14031;50.158;8.626;2023-11-19T09:43:19;12.20;99.90
16174;DHT22;14031;50.158;8.626;2023-11-19T09:45:48;12.30;99.90
16174;DHT22;14031;50.158;8.626;2023-11-19T09:48:16;12.40;99.90
16174;DHT22;14031;50.158;8.626;2023-11-19T09:50:44;12.40;99.90
16174;DHT22;14031;50.158;8.626;2023-11-19T09:53:12;12.50;99.90
16174;DHT22;14031;50.158;8.626;2023-11-19T09:55:40;12.50;99.90
16174;DHT22;14031;50.158;8.626;2023-11-19T09:58:07;12.60;99.90
16174;DHT22;14031;50.158;8.626;2023-11-19T10:00:34;12.70;99.90
16174;DHT22;14031;50.158;8.626;2023-11-19T10:03:02;12.70;99.90
16174;DHT22;14031;50.158;8.626;2023-11-19T10:05:30;12.70;99.90
16174;DHT22;14031;50.158;8.626;2023-11-19T10:07:58;12.80;99.90
16174;DHT22;14031;50.158;8.626;2023-11-19T10:10:25;12.80;99.90
16174;DHT22;14031;50.158;8.626;2023-11-19T10:12:53;12.80;99.90
16174;DHT22;14031;50.158;8.626;2023-11-19T10:15:22;12.80;99.90
16174;DHT22;14031;50.158;8.626;2023-11-19T10:17:50;12.90;99.90
16174;DHT22;14031;50.158;8.626;2023-11-19T10:20:17;12.90;99.90
16174;DHT22;14031;50.158;8.626;2023-11-19T10:22:44;13.00;99.90
16174;DHT22;14031;50.158;8.626;2023-11-19T10:25:22;13.00;99.90
16174;DHT22;14031;50.158;8.626;2023-11-19T10:27:49;13.10;99.90
16174;DHT22;14031;50.158;8.626;2023-11-19T10:30:20;13.10;99.90
16174;DHT22;14031;50.158;8.626;2023-11-19T10:33:03;13.20;99.90
16174;DHT22;14031;50.158;8.626;2023-11-19T10:35:30;13.20;99.90
16174;DHT22;14031;50.158;8.626;2023-11-19T10:37:59;13.20;99.90
16174;DHT22;14031;50.158;8.626;2023-11-19T10:40:38;13.30;99.90
16174;DHT22;14031;50.158;8.626;2023-11-19T10:43:05;13.40;99.90
16174;DHT22;14031;50.158;8.626;2023-11-19T10:45:34;13.40;99.90
16174;DHT22;14031;50.158;8.626;2023-11-19T10:48:02;13.50;99.90
16174;DHT22;14031;50.158;8.626;2023-11-19T10:50:32;13.50;99.90
16174;DHT22;14031;50.158;8.626;2023-11-19T10:52:59;13.50;99.90
16174;DHT22;14031;50.158;8.626;2023-11-19T10:55:27;13.40;99.90
16174;DHT22;14031;50.158;8.626;2023-11-19T10:57:59;13.40;99.90
16174;DHT22;14031;50.158;8.626;2023-11-19T11:00:29;13.40;99.90
16174;DHT22;14031;50.158;8.626;2023-11-19T11:03:01;13.40;99.90
16174;DHT22;14031;50.158;8.626;2023-11-19T11:05:29;13.50;99.90
16174;DHT22;14031;50.158;8.626;2023-11-19T11:07:58;13.60;99.90
16174;DHT22;14031;50.158;8.626;2023-11-19T11:10:26;13.70;99.90
16174;DHT22;14031;50.158;8.626;2023-11-19T11:12:56;13.80;99.90
16174;DHT22;14031;50.158;8.626;2023-11-19T11:15:27;13.80;99.90
16174;DHT22;14031;50.158;8.626;2023-11-19T11:18:00;13.90;99.90
16174;DHT22;14031;50.158;8.626;2023-11-19T11:20:29;13.90;99.90
16174;DHT22;14031;50.158;8.626;2023-11-19T11:23:06;14.10;99.90
16174;DHT22;14031;50.158;8.626;2023-11-19T11:25:44;14.10;99.90
16174;DHT22;14031;50.158;8.626;2023-11-19T11:28:30;14.10;99.90
16174;DHT22;14031;50.158;8.626;2023-11-19T11:31:09;14.10;99.90
16174;DHT22;14031;50.158;8.626;2023-11-19T11:33:59;14.20;99.90
16174;DHT22;14031;50.158;8.626;2023-11-19T11:36:30;14.20;99.90
16174;DHT22;14031;50.158;8.626;2023-11-19T11:38:58;14.20;99.90
16174;DHT22;14031;50.158;8.626;2023-11-19T11:41:26;14.30;99.90
16174;DHT22;14031;50.158;8.626;2023-11-19T11:43:53;14.30;99.90
16174;DHT22;14031;50.158;8.626;2023-11-19T11:46:54;14.40;99.90
16174;DHT22;14031;50.158;8.626;2023-11-19T11:49:30;14.40;99.90
16174;DHT22;14031;50.158;8.626;2023-11-19T11:51:58;14.30;99.90
16174;DHT22;14031;50.158;8.626;2023-11-19T11:54:28;14.30;99.90
16174;DHT22;14031;50.158;8.626;2023-11-19T11:57:03;14.30;99.90
16174;DHT22;14031;50.158;8.626;2023-11-19T11:59:37;14.20;99.90
16174;DHT22;14031;50.158;8.626;2023-11-19T12:02:04;14.10;99.90
16174;DHT22;14031;50.158;8.626;2023-11-19T12:04:35;14.10;99.90
16174;DHT22;14031;50.158;8.626;2023-11-19T12:07:04;14.10;99.90
16174;DHT22;14031;50.158;8.626;2023-11-19T12:09:31;14.20;99.90
16174;DHT22;14031;50.158;8.626;2023-11-19T12:12:07;14.30;99.90
16174;DHT22;14031;50.158;8.626;2023-11-19T12:15:00;14.30;99.90
16174;DHT22;14031;50.158;8.626;2023-11-19T12:17:46;14.30;99.90
16174;DHT22;14031;50.158;8.626;2023-11-19T12:20:17;14.30;99.90
16174;DHT22;14031;50.158;8.626;2023-11-19T12:22:45;14.40;99.90
16174;DHT22;14031;50.158;8.626;2023-11-19T12:25:15;14.50;99.90
16174;DHT22;14031;50.158;8.626;2023-11-19T12:27:44;14.50;99.90
16174;DHT22;14031;50.158;8.626;2023-11-19T12:30:11;14.50;99.90
16174;DHT22;14031;50.158;8.626;2023-11-19T12:32:39;14.60;99.90
16174;DHT22;14031;50.158;8.626;2023-11-19T12:35:07;14.50;99.90
16174;DHT22;14031;50.158;8.626;2023-11-19T12:37:45;14.60;99.90
16174;DHT22;14031;50.158;8.626;2023-11-19T12:40:15;14.60;99.90
16174;DHT22;14031;50.158;8.626;2023-11-19T12:42:43;14.70;99.90
16174;DHT22;14031;50.158;8.626;2023-11-19T12:45:10;14.70;99.90
16174;DHT22;14031;50.158;8.626;2023-11-19T12:47:38;14.70;99.90
16174;DHT22;14031;50.158;8.626;2023-11-19T12:50:06;14.70;99.90
16174;DHT22;14031;50.158;8.626;2023-11-19T12:52:33;14.70;99.90
16174;DHT22;14031;50.158;8.626;2023-11-19T12:55:01;14.80;99.90
16174;DHT22;14031;50.158;8.626;2023-11-19T12:57:38;14.90;99.90
16174;DHT22;14031;50.158;8.626;2023-11-19T13:00:07;14.90;99.90
16174;DHT22;14031;50.158;8.626;2023-11-19T13:02:46;14.90;99.90
16174;DHT22;14031;50.158;8.626;2023-11-19T13:05:27;15.00;99.90
16174;DHT22;14031;50.158;8.626;2023-11-19T13:08:01;15.00;99.90
16174;DHT22;14031;50.158;8.626;2023-11-19T13:10:29;15.00;99.90
16174;DHT22;14031;50.158;8.626;2023-11-19T13:13:01;15.10;99.90
16174;DHT22;14031;50.158;8.626;2023-11-19T13:15:28;15.20;99.90
16174;DHT22;14031;50.158;8.626;2023-11-19T13:17:54;15.20;99.90
16174;DHT22;14031;50.158;8.626;2023-11-19T13:20:21;15.30;99.90
16174;DHT22;14031;50.158;8.626;2023-11-19T13:22:55;15.30;99.90
16174;DHT22;14031;50.158;8.626;2023-11-19T13:25:22;15.40;99.90
16174;DHT22;14031;50.158;8.626;2023-11-19T13:27:50;15.50;99.90
16174;DHT22;14031;50.158;8.626;2023-11-19T13:30:17;15.40;99.90
16174;DHT22;14031;50.158;8.626;2023-11-19T13:32:44;15.40;99.90
16174;DHT22;14031;50.158;8.626;2023-11-19T13:35:11;15.30;99.90
16174;DHT22;14031;50.158;8.626;2023-11-19T13:37:38;15.30;99.90
16174;DHT22;14031;50.158;8.626;2023-11-19T13:40:07;15.20;99.90
16174;DHT22;14031;50.158;8.626;2023-11-19T13:42:35;15.20;99.90
16174;DHT22;14031;50.158;8.626;2023-11-19T13:45:04;15.10;99.90
16174;DHT22;14031;50.158;8.626;2023-11-19T13:47:36;15.10;99.90
16174;DHT22;14031;50.158;8.626;2023-11-19T13:50:03;15.20;99.90
16174;DHT22;14031;50.158;8.626;2023-11-19T13:52:31;15.20;99.90
16174;DHT22;14031;50.158;8.626;2023-11-19T13:54:58;15.20;99.90
16174;DHT22;14031;50.158;8.626;2023-11-19T13:57:25;15.20;99.90
16174;DHT22;14031;50.158;8.626;2023-11-19T13:59:52;15.30;99.90
16174;DHT22;14031;50.158;8.626;2023-11-19T14:02:20;15.30;99.90
16174;DHT22;14031;50.158;8.626;2023-11-19T14:04:47;15.30;99.90
16174;DHT22;14031;50.158;8.626;2023-11-19T14:07:13;15.30;99.90
16174;DHT22;14031;50.158;8.626;2023-11-19T14:09:42;15.30;99.90
16174;DHT22;14031;50.158;8.626;2023-11-19T14:12:09;15.30;99.90
16174;DHT22;14031;50.158;8.626;2023-11-19T14:14:38;15.20;99.90
16174;DHT22;14031;50.158;8.626;2023-11-19T14:17:05;15.20;99.90
16174;DHT22;14031;50.158;8.626;2023-11-19T14:19:34;15.20;99.90
16174;DHT22;14031;50.158;8.626;2023-11-19T14:22:01;15.10;99.90
16174;DHT22;14031;50.158;8.626;2023-11-19T14:24:28;15.00;99.90
16174;DHT22;14031;50.158;8.626;2023-11-19T14:26:54;14.90;99.90
16174;DHT22;14031;50.158;8.626;2023-11-19T14:29:24;14.90;99.90
16174;DHT22;14031;50.158;8.626;2023-11-19T14:31:51;14.80;99.90
16174;DHT22;14031;50.158;8.626;2023-11-19T14:34:18;14.70;99.90
16174;DHT22;14031;50.158;8.626;2023-11-19T14:36:46;14.70;99.90
16174;DHT22;14031;50.158;8.626;2023-11-19T14:39:14;14.60;99.90
16174;DHT22;14031;50.158;8.626;2023-11-19T14:41:42;14.60;99.90
16174;DHT22;14031;50.158;8.626;2023-11-19T14:44:09;14.50;99.90
16174;DHT22;14031;50.158;8.626;2023-11-19T14:46:36;14.50;99.90
16174;DHT22;14031;50.158;8.626;2023-11-19T14:49:03;14.40;99.90
16174;DHT22;14031;50.158;8.626;2023-11-19T14:51:30;14.30;99.90
16174;DHT22;14031;50.158;8.626;2023-11-19T14:53:58;14.30;99.90
16174;DHT22;14031;50.158;8.626;2023-11-19T14:56:25;14.20;99.90
16174;DHT22;14031;50.158;8.626;2023-11-19T14:58:52;14.20;99.90
16174;DHT22;14031;50.158;8.626;2023-11-19T15:01:18;14.10;99.90
16174;DHT22;14031;50.158;8.626;2023-11-19T15:03:45;14.10;99.90
16174;DHT22;14031;50.158;8.626;2023-11-19T15:06:12;14.10;99.90
16174;DHT22;14031;50.158;8.626;2023-11-19T15:08:39;14.00;99.90
16174;DHT22;14031;50.158;8.626;2023-11-19T15:11:08;14.00;99.90
16174;DHT22;14031;50.158;8.626;2023-11-19T15:13:37;14.00;99.90
16174;DHT22;14031;50.158;8.626;2023-11-19T15:16:07;14.00;99.90
16174;DHT22;14031;50.158;8.626;2023-11-19T15:18:36;13.90;99.90
16174;DHT22;14031;50.158;8.626;2023-11-19T15:21:03;13.90;99.90
16174;DHT22;14031;50.158;8.626;2023-11-19T15:23:29;13.90;99.90
16174;DHT22;14031;50.158;8.626;2023-11-19T15:25:56;13.90;99.90
16174;DHT22;14031;50.158;8.626;2023-11-19T15:28:24;13.80;99.90
16174;DHT22;14031;50.158;8.626;2023-11-19T15:30:51;13.70;99.90
16174;DHT22;14031;50.158;8.626;2023-11-19T15:33:18;13.70;99.90
16174;DHT22;14031;50.158;8.626;2023-11-19T15:35:45;13.60;99.90
16174;DHT22;14031;50.158;8.626;2023-11-19T15:38:11;13.60;99.90
16174;DHT22;14031;50.158;8.626;2023-11-19T15:40:38;13.60;99.90
16174;DHT22;14031;50.158;8.626;2023-11-19T15:43:05;13.60;99.90